createdAt,value
2023-01-18T00:00:52.389Z,96982.69
2023-01-18T00:03:20.105Z,96970.81
2023-01-18T00:05:47.575Z,96960.53
2023-01-18T00:08:18.981Z,96952.94
2023-01-18T00:10:47.252Z,96934.88
2023-01-18T00:13:14.809Z,96939.03
2023-01-18T00:15:42.334Z,96934.28
2023-01-18T00:18:10.469Z,96913.91
2023-01-18T00:20:38.299Z,96919.69
2023-01-18T00:23:05.914Z,96914.59
2023-01-18T00:25:33.729Z,96912.53
2023-01-18T00:28:01.305Z,96936.44
2023-01-18T00:30:29.889Z,96947.44
2023-01-18T00:32:59.449Z,96968.47
2023-01-18T00:35:27.208Z,96991.63
2023-01-18T00:37:54.679Z,97018.88
2023-01-18T00:40:23.163Z,97047.94
2023-01-18T00:43:09.420Z,97065.16
2023-01-18T00:45:37.724Z,97069.56
2023-01-18T00:48:05.508Z,97074.37
2023-01-18T00:50:33.125Z,97086.28
2023-01-18T00:53:00.887Z,97078.66
2023-01-18T00:55:28.467Z,97075.28
2023-01-18T00:57:55.884Z,97077.59
2023-01-18T01:00:26.963Z,97065.75
2023-01-18T01:02:55.044Z,97068.09
2023-01-18T01:05:43.155Z,97076.84
2023-01-18T01:08:17.031Z,97060.00
2023-01-18T01:10:48.213Z,97054.81
2023-01-18T01:13:38.409Z,97041.06
2023-01-18T01:16:29.694Z,97026.09
2023-01-18T01:19:16.963Z,97033.63
2023-01-18T01:22:03.286Z,97032.53
2023-01-18T01:24:49.763Z,97018.59
2023-01-18T01:27:17.716Z,97015.69
2023-01-18T01:29:45.587Z,97018.81
2023-01-18T01:32:13.450Z,97029.81
2023-01-18T01:34:40.890Z,97040.62
2023-01-18T01:37:08.685Z,97050.19
2023-01-18T01:39:36.716Z,97058.91
2023-01-18T01:42:04.396Z,97058.47
2023-01-18T01:44:34.591Z,97068.19
2023-01-18T01:47:17.759Z,97060.81
2023-01-18T01:49:48.394Z,97071.50
2023-01-18T01:52:19.447Z,97076.28
2023-01-18T01:54:57.484Z,97095.41
2023-01-18T01:57:31.225Z,97076.94
2023-01-18T02:00:10.355Z,97063.25
2023-01-18T02:02:40.080Z,97060.84
2023-01-18T02:05:09.793Z,97073.84
2023-01-18T02:07:37.378Z,97063.53
2023-01-18T02:10:06.352Z,97074.53
2023-01-18T02:12:35.550Z,97081.66
2023-01-18T02:15:03.625Z,97096.06
2023-01-18T02:17:59.151Z,97116.66
2023-01-18T02:20:44.388Z,97125.47
2023-01-18T02:23:46.503Z,97132.16
2023-01-18T02:26:36.167Z,97132.34
2023-01-18T02:29:06.623Z,97126.28
2023-01-18T02:31:40.055Z,97119.84
2023-01-18T02:34:16.777Z,97113.50
2023-01-18T02:37:22.763Z,97128.34
2023-01-18T02:39:50.043Z,97111.72
2023-01-18T02:42:38.958Z,97111.16
2023-01-18T02:45:39.700Z,97097.50
2023-01-18T02:48:08.503Z,97103.94
2023-01-18T02:50:36.349Z,97122.06
2023-01-18T02:53:03.988Z,97128.37
2023-01-18T02:55:51.580Z,97128.78
2023-01-18T02:58:24.963Z,97130.78
2023-01-18T03:00:57.919Z,97111.03
2023-01-18T03:03:26.250Z,97106.09
2023-01-18T03:05:58.723Z,97117.88
2023-01-18T03:08:39.032Z,97110.44
2023-01-18T03:11:11.215Z,97109.75
2023-01-18T03:14:03.335Z,97111.34
2023-01-18T03:16:59.243Z,97100.41
2023-01-18T03:20:05.531Z,97104.84
2023-01-18T03:23:06.895Z,97094.41
2023-01-18T03:25:36.864Z,97085.72
2023-01-18T03:29:06.837Z,97094.88
2023-01-18T03:32:02.478Z,97095.88
2023-01-18T03:34:34.279Z,97089.16
2023-01-18T03:37:04.331Z,97078.06
2023-01-18T03:39:37.234Z,97080.16
2023-01-18T03:42:10.048Z,97074.44
2023-01-18T03:44:41.683Z,97079.13
2023-01-18T03:47:09.333Z,97068.84
2023-01-18T03:49:37.116Z,97070.25
2023-01-18T03:52:13.360Z,97073.38
2023-01-18T03:54:50.200Z,97080.69
2023-01-18T03:57:24.359Z,97087.47
2023-01-18T03:59:51.930Z,97087.50
2023-01-18T04:02:20.786Z,97097.94
2023-01-18T04:04:48.771Z,97104.22
2023-01-18T04:07:16.097Z,97106.25
2023-01-18T04:09:44.014Z,97111.19
2023-01-18T04:12:12.215Z,97115.62
2023-01-18T04:14:39.858Z,97109.81
2023-01-18T04:17:07.317Z,97096.37
2023-01-18T04:19:35.124Z,97095.31
2023-01-18T04:22:02.676Z,97084.03
2023-01-18T04:24:30.283Z,97067.41
2023-01-18T04:26:58.220Z,97085.66
2023-01-18T04:29:25.831Z,97085.59
2023-01-18T04:31:53.301Z,97083.16
2023-01-18T04:34:23.939Z,97115.91
2023-01-18T04:36:51.815Z,97128.03
2023-01-18T04:39:19.598Z,97121.78
2023-01-18T04:41:47.509Z,97146.09
2023-01-18T04:44:15.337Z,97150.63
2023-01-18T04:46:43.396Z,97137.00
2023-01-18T04:49:15.367Z,97125.50
2023-01-18T04:51:43.986Z,97134.31
2023-01-18T04:54:14.556Z,97139.12
2023-01-18T04:56:42.144Z,97155.16
2023-01-18T04:59:14.561Z,97162.56
2023-01-18T05:01:42.451Z,97166.13
2023-01-18T05:04:11.223Z,97171.53
2023-01-18T05:06:38.878Z,97185.03
2023-01-18T05:09:06.601Z,97190.44
2023-01-18T05:11:34.152Z,97208.12
2023-01-18T05:14:01.571Z,97218.44
2023-01-18T05:16:29.467Z,97226.19
2023-01-18T05:18:57.210Z,97210.66
2023-01-18T05:21:24.736Z,97215.41
2023-01-18T05:23:52.866Z,97214.97
2023-01-18T05:26:22.600Z,97217.34
2023-01-18T05:28:50.717Z,97225.59
2023-01-18T05:31:21.222Z,97224.03
2023-01-18T05:33:49.629Z,97219.63
2023-01-18T05:36:17.593Z,97219.72
2023-01-18T05:38:46.660Z,97217.22
2023-01-18T05:41:14.241Z,97208.56
2023-01-18T05:43:42.242Z,97206.69
2023-01-18T05:46:09.928Z,97208.00
2023-01-18T05:48:37.580Z,97204.78
2023-01-18T05:51:09.389Z,97187.78
2023-01-18T05:53:37.546Z,97152.88
2023-01-18T05:56:06.760Z,97156.91
2023-01-18T05:58:35.463Z,97182.91
2023-01-18T06:01:03.429Z,97183.75
2023-01-18T06:03:31.161Z,97185.09
2023-01-18T06:05:59.212Z,97172.41
2023-01-18T06:08:27.252Z,97173.66
2023-01-18T06:10:56.199Z,97184.72
2023-01-18T06:13:24.616Z,97203.31
2023-01-18T06:15:54.628Z,97220.16
2023-01-18T06:18:24.128Z,97227.06
2023-01-18T06:20:59.096Z,97221.44
2023-01-18T06:23:29.255Z,97231.38
2023-01-18T06:25:56.674Z,97221.94
2023-01-18T06:28:24.455Z,97221.47
2023-01-18T06:30:53.255Z,97203.72
2023-01-18T06:33:21.417Z,97192.69
2023-01-18T06:35:49.039Z,97155.81
2023-01-18T06:38:16.993Z,97120.50
2023-01-18T06:40:44.412Z,97168.63
2023-01-18T06:43:14.339Z,97161.25
2023-01-18T06:45:42.369Z,97200.94
2023-01-18T06:48:09.771Z,97234.91
2023-01-18T06:50:37.258Z,97237.34
2023-01-18T06:53:05.196Z,97263.03
2023-01-18T06:55:34.791Z,97261.72
2023-01-18T06:58:02.688Z,97249.09
2023-01-18T07:00:30.521Z,97274.34
2023-01-18T07:02:58.662Z,97295.66
2023-01-18T07:05:26.345Z,97313.69
2023-01-18T07:07:54.253Z,97305.34
2023-01-18T07:10:21.784Z,97284.72
2023-01-18T07:12:50.932Z,97287.16
2023-01-18T07:15:22.900Z,97297.38
2023-01-18T07:17:50.934Z,97310.41
2023-01-18T07:20:19.927Z,97318.81
2023-01-18T07:22:52.752Z,97336.84
2023-01-18T07:25:20.841Z,97348.28
2023-01-18T07:27:49.204Z,97362.69
2023-01-18T07:30:17.843Z,97366.78
2023-01-18T07:32:50.570Z,97365.81
2023-01-18T07:35:22.110Z,97358.38
2023-01-18T07:37:52.278Z,97353.00
2023-01-18T07:40:21.341Z,97338.53
2023-01-18T07:42:49.370Z,97342.75
2023-01-18T07:45:17.320Z,97349.13
2023-01-18T07:47:46.255Z,97367.94
2023-01-18T07:50:16.810Z,97385.91
2023-01-18T07:52:44.513Z,97401.31
2023-01-18T07:55:12.044Z,97404.66
2023-01-18T07:57:39.510Z,97410.25
2023-01-18T08:00:08.190Z,97412.00
2023-01-18T08:02:40.015Z,97415.03
2023-01-18T08:05:10.663Z,97428.22
2023-01-18T08:07:38.261Z,97434.09
2023-01-18T08:10:05.858Z,97443.09
2023-01-18T08:12:33.768Z,97446.03
2023-01-18T08:15:01.288Z,97449.22
2023-01-18T08:17:29.804Z,97448.03
2023-01-18T08:19:57.558Z,97452.97
2023-01-18T08:22:25.175Z,97464.63
2023-01-18T08:24:52.809Z,97482.12
2023-01-18T08:27:20.687Z,97486.91
2023-01-18T08:29:48.431Z,97493.31
2023-01-18T08:32:16.011Z,97482.19
2023-01-18T08:34:43.753Z,97475.66
2023-01-18T08:37:11.878Z,97475.44
2023-01-18T08:39:39.394Z,97477.97
2023-01-18T08:42:07.311Z,97482.38
2023-01-18T08:44:34.909Z,97489.44
2023-01-18T08:47:03.390Z,97484.88
2023-01-18T08:49:32.788Z,97492.81
2023-01-18T08:52:00.706Z,97493.72
2023-01-18T08:54:28.120Z,97508.94
2023-01-18T08:56:55.814Z,97521.69
2023-01-18T08:59:23.945Z,97525.72
2023-01-18T09:01:51.608Z,97537.00
2023-01-18T09:04:19.468Z,97540.91
2023-01-18T09:06:50.306Z,97539.94
2023-01-18T09:09:17.658Z,97552.75
2023-01-18T09:11:45.433Z,97565.19
2023-01-18T09:14:12.950Z,97579.41
2023-01-18T09:16:40.534Z,97601.56
2023-01-18T09:19:08.476Z,97612.91
2023-01-18T09:21:36.032Z,97629.50
2023-01-18T09:24:03.974Z,97643.03
2023-01-18T09:26:31.882Z,97640.38
2023-01-18T09:28:59.365Z,97649.94
2023-01-18T09:31:28.289Z,97650.38
2023-01-18T09:34:12.990Z,97661.72
2023-01-18T09:36:44.726Z,97671.28
2023-01-18T09:39:12.493Z,97677.28
2023-01-18T09:41:43.191Z,97674.97
2023-01-18T09:44:17.794Z,97672.91
2023-01-18T09:46:51.844Z,97687.50
2023-01-18T09:49:29.073Z,97695.25
2023-01-18T09:52:13.147Z,97692.69
2023-01-18T09:54:51.507Z,97692.91
2023-01-18T09:57:31.335Z,97686.34
2023-01-18T10:00:00.172Z,97693.19
2023-01-18T10:02:39.171Z,97683.59
2023-01-18T10:05:23.304Z,97685.34
2023-01-18T10:08:02.539Z,97696.12
2023-01-18T10:10:39.962Z,97709.69
2023-01-18T10:13:35.467Z,97717.09
2023-01-18T10:16:08.311Z,97722.13
2023-01-18T10:18:45.635Z,97731.41
2023-01-18T10:21:23.146Z,97740.03
2023-01-18T10:24:21.784Z,97740.28
2023-01-18T10:26:53.749Z,97736.78
2023-01-18T10:29:25.342Z,97730.44
2023-01-18T10:32:01.843Z,97726.22
2023-01-18T10:34:35.145Z,97734.47
2023-01-18T10:37:14.457Z,97725.59
2023-01-18T10:40:03.432Z,97748.12
2023-01-18T10:42:45.433Z,97759.50
2023-01-18T10:45:20.396Z,97772.69
2023-01-18T10:47:49.158Z,97765.56
2023-01-18T10:50:38.322Z,97776.94
2023-01-18T10:53:25.280Z,97790.28
2023-01-18T10:55:59.402Z,97807.06
2023-01-18T10:58:30.745Z,97815.31
2023-01-18T11:01:00.521Z,97814.34
2023-01-18T11:03:29.042Z,97821.22
2023-01-18T11:06:07.199Z,97822.59
2023-01-18T11:08:35.922Z,97809.78
2023-01-18T11:11:20.019Z,97820.41
2023-01-18T11:13:52.863Z,97826.69
2023-01-18T11:16:22.540Z,97828.00
2023-01-18T11:18:59.379Z,97839.38
2023-01-18T11:21:33.241Z,97845.63
2023-01-18T11:24:07.727Z,97849.50
2023-01-18T11:26:35.591Z,97851.37
2023-01-18T11:29:06.219Z,97854.16
2023-01-18T11:31:46.193Z,97862.09
2023-01-18T11:34:23.371Z,97865.84
2023-01-18T11:36:51.282Z,97869.75
2023-01-18T11:39:29.120Z,97877.59
2023-01-18T11:42:32.469Z,97877.91
2023-01-18T11:45:16.255Z,97876.34
2023-01-18T11:47:51.681Z,97886.88
2023-01-18T11:50:47.248Z,97896.87
2023-01-18T11:53:33.449Z,97904.34
2023-01-18T11:56:07.551Z,97899.66
2023-01-18T11:58:36.005Z,97909.03
2023-01-18T12:01:22.761Z,97912.59
2023-01-18T12:03:58.821Z,97912.97
2023-01-18T12:06:36.256Z,97927.69
2023-01-18T12:09:14.487Z,97932.12
2023-01-18T12:11:58.025Z,97923.28
2023-01-18T12:15:11.230Z,97932.78
2023-01-18T12:18:27.531Z,97944.22
2023-01-18T12:21:21.061Z,97944.97
2023-01-18T12:23:54.825Z,97965.22
2023-01-18T12:26:22.654Z,97961.00
2023-01-18T12:28:57.747Z,97960.16
2023-01-18T12:31:44.196Z,97949.53
2023-01-18T12:34:25.077Z,97966.84
2023-01-18T12:36:55.933Z,97973.28
2023-01-18T12:39:55.653Z,97983.28
2023-01-18T12:42:28.585Z,97989.50
2023-01-18T12:45:07.717Z,97988.50
2023-01-18T12:47:47.870Z,97985.00
2023-01-18T12:50:27.771Z,97987.22
2023-01-18T12:53:01.118Z,97980.56
2023-01-18T12:55:31.843Z,97982.94
2023-01-18T12:58:00.641Z,97991.63
2023-01-18T13:00:38.332Z,97995.72
2023-01-18T13:03:13.835Z,98009.41
2023-01-18T13:05:52.613Z,98015.56
2023-01-18T13:08:50.172Z,98026.72
2023-01-18T13:11:36.366Z,98037.22
2023-01-18T13:14:25.685Z,98030.19
2023-01-18T13:17:19.344Z,98030.66
2023-01-18T13:19:55.030Z,98037.16
2023-01-18T13:22:44.384Z,98057.78
2023-01-18T13:25:29.360Z,98061.31
2023-01-18T13:28:01.074Z,98079.47
2023-01-18T13:30:32.611Z,98086.56
2023-01-18T13:33:00.730Z,98080.06
2023-01-18T13:35:33.495Z,98073.66
2023-01-18T13:38:12.116Z,98076.25
2023-01-18T13:40:51.904Z,98089.41
2023-01-18T13:43:38.154Z,98080.53
2023-01-18T13:46:08.586Z,98077.75
2023-01-18T13:48:54.500Z,98078.84
2023-01-18T13:51:40.690Z,98064.06
2023-01-18T13:54:29.873Z,98086.00
2023-01-18T13:57:04.557Z,98095.31
2023-01-18T13:59:37.505Z,98086.13
2023-01-18T14:02:17.683Z,98090.44
2023-01-18T14:04:45.615Z,98096.63
2023-01-18T14:07:22.911Z,98091.06
2023-01-18T14:09:51.426Z,98106.50
2023-01-18T14:12:48.566Z,98111.34
2023-01-18T14:15:41.965Z,98108.50
2023-01-18T14:18:15.469Z,98113.56
2023-01-18T14:20:52.215Z,98117.66
2023-01-18T14:23:48.675Z,98123.16
2023-01-18T14:26:17.416Z,98126.50
2023-01-18T14:28:53.044Z,98132.25
2023-01-18T14:31:28.100Z,98131.81
2023-01-18T14:33:55.612Z,98133.94
2023-01-18T14:36:26.502Z,98129.09
2023-01-18T14:39:13.461Z,98126.31
2023-01-18T14:41:43.682Z,98134.31
2023-01-18T14:44:23.329Z,98147.31
2023-01-18T14:46:56.696Z,98157.63
2023-01-18T14:49:35.155Z,98156.69
2023-01-18T14:52:13.421Z,98152.97
2023-01-18T14:54:53.764Z,98143.31
2023-01-18T14:57:36.795Z,98154.97
2023-01-18T15:00:16.801Z,98151.56
2023-01-18T15:02:46.652Z,98155.22
2023-01-18T15:05:22.941Z,98148.72
2023-01-18T15:07:56.268Z,98147.81
2023-01-18T15:10:37.848Z,98147.16
2023-01-18T15:13:16.506Z,98138.66
2023-01-18T15:15:44.672Z,98142.69
2023-01-18T15:18:20.560Z,98125.59
2023-01-18T15:21:04.591Z,98127.50
2023-01-18T15:23:41.676Z,98133.97
2023-01-18T15:26:13.317Z,98144.13
2023-01-18T15:28:46.314Z,98143.94
2023-01-18T15:31:23.627Z,98139.41
2023-01-18T15:33:54.452Z,98130.72
2023-01-18T15:36:23.277Z,98144.38
2023-01-18T15:38:54.037Z,98154.91
2023-01-18T15:41:21.912Z,98169.31
2023-01-18T15:43:49.469Z,98176.62
2023-01-18T15:46:17.652Z,98184.09
2023-01-18T15:48:53.817Z,98197.78
2023-01-18T15:51:22.745Z,98195.37
2023-01-18T15:53:56.309Z,98182.91
2023-01-18T15:56:26.841Z,98191.75
2023-01-18T15:58:56.177Z,98190.69
2023-01-18T16:01:28.211Z,98184.91
2023-01-18T16:04:22.228Z,98192.16
2023-01-18T16:06:49.873Z,98199.75
2023-01-18T16:09:20.897Z,98219.19
2023-01-18T16:11:54.589Z,98235.94
2023-01-18T16:14:28.998Z,98243.41
2023-01-18T16:17:06.056Z,98241.22
2023-01-18T16:19:41.825Z,98236.59
2023-01-18T16:22:37.241Z,98248.53
2023-01-18T16:25:16.962Z,98243.47
2023-01-18T16:27:53.262Z,98235.25
2023-01-18T16:30:35.297Z,98236.50
2023-01-18T16:33:10.084Z,98227.03
2023-01-18T16:35:39.945Z,98229.66
2023-01-18T16:38:15.683Z,98235.22
2023-01-18T16:40:45.121Z,98239.06
2023-01-18T16:43:18.963Z,98238.88
2023-01-18T16:45:49.457Z,98242.00
2023-01-18T16:48:28.101Z,98224.84
2023-01-18T16:50:56.648Z,98228.88
2023-01-18T16:53:24.155Z,98231.53
2023-01-18T16:55:51.815Z,98235.28
2023-01-18T16:58:21.240Z,98244.34
2023-01-18T17:00:51.551Z,98254.87
2023-01-18T17:03:19.447Z,98252.56
2023-01-18T17:05:47.039Z,98244.88
2023-01-18T17:08:15.778Z,98261.25
2023-01-18T17:10:46.428Z,98250.53
2023-01-18T17:13:13.849Z,98244.94
2023-01-18T17:15:45.530Z,98258.28
2023-01-18T17:18:15.540Z,98257.75
2023-01-18T17:20:43.610Z,98263.94
2023-01-18T17:23:11.427Z,98276.31
2023-01-18T17:25:39.302Z,98293.47
2023-01-18T17:28:07.022Z,98304.47
2023-01-18T17:30:34.993Z,98302.69
2023-01-18T17:33:03.179Z,98305.00
2023-01-18T17:35:32.095Z,98308.19
2023-01-18T17:38:06.176Z,98316.66
2023-01-18T17:40:43.826Z,98326.72
2023-01-18T17:43:28.578Z,98328.91
2023-01-18T17:46:03.214Z,98328.25
2023-01-18T17:48:30.648Z,98338.50
2023-01-18T17:50:58.735Z,98339.44
2023-01-18T17:53:27.098Z,98345.66
2023-01-18T17:55:55.203Z,98340.75
2023-01-18T17:58:22.817Z,98350.38
2023-01-18T18:00:51.194Z,98353.28
2023-01-18T18:03:20.208Z,98349.16
2023-01-18T18:05:48.220Z,98359.41
2023-01-18T18:08:18.059Z,98359.69
2023-01-18T18:10:45.929Z,98352.81
2023-01-18T18:13:13.462Z,98356.09
2023-01-18T18:15:45.983Z,98363.75
2023-01-18T18:18:22.747Z,98359.63
2023-01-18T18:21:02.488Z,98350.44
2023-01-18T18:23:30.910Z,98346.69
2023-01-18T18:25:59.335Z,98340.03
2023-01-18T18:28:29.531Z,98331.84
2023-01-18T18:30:58.441Z,98336.88
2023-01-18T18:33:26.947Z,98332.47
2023-01-18T18:35:54.644Z,98334.81
2023-01-18T18:38:23.159Z,98335.06
2023-01-18T18:40:51.465Z,98329.53
2023-01-18T18:43:19.168Z,98326.19
2023-01-18T18:45:47.604Z,98315.38
2023-01-18T18:48:15.106Z,98309.56
2023-01-18T18:50:42.692Z,98314.59
2023-01-18T18:53:10.458Z,98314.44
2023-01-18T18:55:38.093Z,98323.28
2023-01-18T18:58:07.073Z,98324.41
2023-01-18T19:00:35.184Z,98322.47
2023-01-18T19:03:04.696Z,98320.75
2023-01-18T19:05:33.730Z,98327.13
2023-01-18T19:08:01.897Z,98321.63
2023-01-18T19:10:30.387Z,98330.66
2023-01-18T19:12:58.709Z,98331.28
2023-01-18T19:15:27.028Z,98334.94
2023-01-18T19:18:01.272Z,98327.19
2023-01-18T19:20:29.084Z,98334.13
2023-01-18T19:22:56.905Z,98325.84
2023-01-18T19:25:27.313Z,98329.59
2023-01-18T19:27:56.426Z,98325.56
2023-01-18T19:30:29.509Z,98318.22
2023-01-18T19:32:59.861Z,98315.97
2023-01-18T19:35:27.366Z,98324.72
2023-01-18T19:37:55.333Z,98324.81
2023-01-18T19:40:24.688Z,98326.41
2023-01-18T19:42:55.974Z,98326.78
2023-01-18T19:45:28.359Z,98328.38
2023-01-18T19:47:57.769Z,98330.94
2023-01-18T19:50:26.844Z,98338.56
2023-01-18T19:52:54.445Z,98338.66
2023-01-18T19:55:22.922Z,98338.38
2023-01-18T19:57:52.378Z,98328.28
2023-01-18T20:00:20.411Z,98336.75
2023-01-18T20:02:48.689Z,98338.56
2023-01-18T20:05:17.321Z,98340.63
2023-01-18T20:07:45.079Z,98340.06
2023-01-18T20:10:13.044Z,98347.69
2023-01-18T20:12:42.974Z,98345.03
2023-01-18T20:15:10.600Z,98347.97
2023-01-18T20:17:38.396Z,98349.47
2023-01-18T20:20:06.514Z,98341.19
2023-01-18T20:22:33.955Z,98341.47
2023-01-18T20:25:01.772Z,98340.06
2023-01-18T20:27:29.502Z,98342.13
2023-01-18T20:29:58.326Z,98342.69
2023-01-18T20:32:26.400Z,98345.03
2023-01-18T20:34:53.978Z,98342.94
2023-01-18T20:37:21.481Z,98340.88
2023-01-18T20:39:50.409Z,98334.00
2023-01-18T20:42:18.115Z,98335.38
2023-01-18T20:44:49.259Z,98332.31
2023-01-18T20:47:17.200Z,98327.44
2023-01-18T20:49:45.458Z,98328.50
2023-01-18T20:52:13.072Z,98332.13
2023-01-18T20:54:40.880Z,98322.91
2023-01-18T20:57:08.622Z,98337.91
2023-01-18T20:59:36.136Z,98350.13
2023-01-18T21:02:05.219Z,98346.91
2023-01-18T21:04:32.884Z,98358.44
2023-01-18T21:07:00.536Z,98349.59
2023-01-18T21:09:28.288Z,98344.03
2023-01-18T21:11:55.915Z,98336.66
2023-01-18T21:14:23.670Z,98335.12
2023-01-18T21:16:51.451Z,98329.47
2023-01-18T21:19:19.125Z,98317.53
2023-01-18T21:21:46.697Z,98315.81
2023-01-18T21:24:14.523Z,98311.56
2023-01-18T21:26:42.193Z,98305.00
2023-01-18T21:29:09.713Z,98291.97
2023-01-18T21:31:39.986Z,98282.12
2023-01-18T21:34:07.776Z,98275.81
2023-01-18T21:36:35.716Z,98271.41
2023-01-18T21:39:04.622Z,98274.28
2023-01-18T21:41:50.574Z,98300.78
2023-01-18T21:44:37.068Z,98306.38
2023-01-18T21:47:04.593Z,98324.53
2023-01-18T21:50:16.613Z,98330.56
2023-01-18T21:52:57.180Z,98332.53
2023-01-18T21:55:25.329Z,98333.03
2023-01-18T21:58:11.359Z,98337.13
2023-01-18T22:00:39.932Z,98334.47
2023-01-18T22:03:09.810Z,98342.31
2023-01-18T22:05:39.889Z,98337.88
2023-01-18T22:08:09.910Z,98333.81
2023-01-18T22:10:37.518Z,98321.50
2023-01-18T22:13:05.121Z,98327.62
2023-01-18T22:15:32.805Z,98335.34
2023-01-18T22:18:00.791Z,98340.84
2023-01-18T22:20:30.326Z,98340.22
2023-01-18T22:22:58.626Z,98335.25
2023-01-18T22:25:26.070Z,98332.28
2023-01-18T22:27:53.446Z,98333.97
2023-01-18T22:30:22.892Z,98314.91
2023-01-18T22:32:50.299Z,98316.75
2023-01-18T22:35:17.848Z,98319.59
2023-01-18T22:37:45.599Z,98325.44
2023-01-18T22:40:13.112Z,98324.28
2023-01-18T22:42:40.749Z,98317.09
2023-01-18T22:45:08.731Z,98314.75
2023-01-18T22:47:36.240Z,98320.53
2023-01-18T22:50:04.015Z,98309.41
2023-01-18T22:52:31.794Z,98304.97
2023-01-18T22:54:59.285Z,98307.50
2023-01-18T22:57:26.666Z,98314.97
2023-01-18T22:59:54.572Z,98321.41
2023-01-18T23:02:21.995Z,98321.25
2023-01-18T23:04:49.458Z,98319.47
2023-01-18T23:07:17.562Z,98318.69
2023-01-18T23:09:45.141Z,98311.91
2023-01-18T23:12:12.696Z,98298.50
2023-01-18T23:14:59.147Z,98302.59
2023-01-18T23:17:38.850Z,98298.22
2023-01-18T23:20:10.293Z,98288.84
2023-01-18T23:22:38.108Z,98283.16
2023-01-18T23:25:06.200Z,98288.63
2023-01-18T23:27:33.712Z,98274.19
2023-01-18T23:30:02.580Z,98271.84
2023-01-18T23:32:30.888Z,98264.28
2023-01-18T23:34:59.783Z,98273.81
2023-01-18T23:37:27.663Z,98261.06
2023-01-18T23:40:14.161Z,98261.19
2023-01-18T23:43:01.153Z,98252.34
2023-01-18T23:45:47.665Z,98247.34
2023-01-18T23:48:37.874Z,98251.00
2023-01-18T23:51:26.465Z,98243.22
2023-01-18T23:54:12.810Z,98243.84
2023-01-18T23:56:40.518Z,98245.28
2023-01-18T23:59:08.837Z,98226.00
